createdAt,value
2019-01-04T00:01:23.941Z,-0.40
2019-01-04T00:03:57.741Z,-0.40
2019-01-04T00:10:17.775Z,-0.50
2019-01-04T00:12:51.367Z,-0.60
2019-01-04T00:15:24.987Z,-0.80
2019-01-04T00:17:58.581Z,-0.80
2019-01-04T00:20:32.218Z,-0.90
2019-01-04T00:26:52.325Z,-1.00
2019-01-04T00:29:25.981Z,-1.20
2019-01-04T00:31:59.618Z,-1.20
2019-01-04T00:34:33.211Z,-1.20
2019-01-04T00:37:06.941Z,-1.30
2019-01-04T00:39:40.592Z,-1.30
2019-01-04T00:42:14.217Z,-1.30
2019-01-04T00:44:47.922Z,-1.40
2019-01-04T00:47:21.723Z,-1.40
2019-01-04T00:49:56.832Z,-1.50
2019-01-04T00:52:30.502Z,-1.50
2019-01-04T00:55:07.228Z,-1.50
2019-01-04T00:57:52.803Z,-1.50
2019-01-04T01:00:35.467Z,-1.50
2019-01-04T01:03:34.633Z,-1.50
2019-01-04T01:06:17.283Z,-1.50
2019-01-04T01:09:15.933Z,-1.40
2019-01-04T01:12:25.885Z,-1.40
2019-01-04T01:15:08.205Z,-1.50
2019-01-04T01:17:53.875Z,-1.50
2019-01-04T01:24:04.878Z,-1.60
2019-01-04T01:27:00.792Z,-1.60
2019-01-04T01:29:52.005Z,-1.60
2019-01-04T01:32:46.745Z,-1.70
2019-01-04T01:35:48.229Z,-1.80
2019-01-04T01:38:24.896Z,-1.80
2019-01-04T01:41:19.365Z,-1.90
2019-01-04T01:47:16.355Z,-2.00
2019-01-04T01:50:04.951Z,-2.10
2019-01-04T01:52:40.125Z,-2.10
2019-01-04T01:55:13.742Z,-2.10
2019-01-04T01:57:47.383Z,-2.20
2019-01-04T02:00:21.236Z,-2.20
2019-01-04T02:02:54.855Z,-2.20
2019-01-04T02:05:28.465Z,-2.20
2019-01-04T02:08:02.153Z,-2.20
2019-01-04T02:10:35.757Z,-2.30
2019-01-04T02:13:09.393Z,-2.20
2019-01-04T02:15:43.051Z,-2.20
2019-01-04T02:18:16.726Z,-2.20
2019-01-04T02:20:50.351Z,-2.20
2019-01-04T02:23:23.933Z,-2.10
2019-01-04T02:25:57.556Z,-2.10
2019-01-04T02:28:31.148Z,-2.10
2019-01-04T02:31:04.843Z,-2.10
2019-01-04T02:33:38.434Z,-2.10
2019-01-04T02:36:12.035Z,-2.00
2019-01-04T02:38:47.212Z,-2.00
2019-01-04T02:41:20.789Z,-2.00
2019-01-04T02:43:54.427Z,-2.00
2019-01-04T02:46:28.051Z,-2.00
2019-01-04T02:49:01.749Z,-2.00
2019-01-04T02:51:35.342Z,-1.90
2019-01-04T02:54:09.370Z,-1.90
2019-01-04T02:56:42.961Z,-1.90
2019-01-04T02:59:16.581Z,-1.90
2019-01-04T03:01:50.253Z,-2.00
2019-01-04T03:04:23.894Z,-2.00
2019-01-04T03:06:57.553Z,-2.00
2019-01-04T03:09:31.177Z,-2.00
2019-01-04T03:12:04.765Z,-1.90
2019-01-04T03:14:38.388Z,-1.90
2019-01-04T03:17:11.956Z,-1.90
2019-01-04T03:19:45.654Z,-1.90
2019-01-04T03:22:19.239Z,-1.90
2019-01-04T03:24:53.015Z,-1.90
2019-01-04T03:27:26.604Z,-1.80
2019-01-04T03:30:00.220Z,-1.80
2019-01-04T03:32:33.820Z,-1.80
2019-01-04T03:35:07.511Z,-1.80
2019-01-04T03:37:41.104Z,-1.80
2019-01-04T03:40:14.744Z,-1.80
2019-01-04T03:42:48.326Z,-1.80
2019-01-04T03:45:22.012Z,-1.90
2019-01-04T03:47:55.678Z,-1.90
2019-01-04T03:50:29.387Z,-1.90
2019-01-04T03:53:03.043Z,-1.90
2019-01-04T03:55:36.683Z,-2.00
2019-01-04T03:58:10.331Z,-1.90
2019-01-04T04:00:44.008Z,-1.90
2019-01-04T04:03:17.774Z,-1.90
2019-01-04T04:05:51.629Z,-1.90
2019-01-04T04:08:25.222Z,-1.90
2019-01-04T04:10:58.838Z,-1.90
2019-01-04T04:13:32.433Z,-1.80
2019-01-04T04:16:06.063Z,-1.80
2019-01-04T04:18:39.642Z,-1.80
2019-01-04T04:21:13.344Z,-1.80
2019-01-04T04:23:46.933Z,-1.80
2019-01-04T04:26:20.560Z,-1.80
2019-01-04T04:28:54.154Z,-1.80
2019-01-04T04:31:27.801Z,-1.80
2019-01-04T04:34:01.505Z,-1.90
2019-01-04T04:36:35.334Z,-1.90
2019-01-04T04:39:08.921Z,-1.90
2019-01-04T04:41:42.644Z,-1.90
2019-01-04T04:44:16.268Z,-1.90
2019-01-04T04:46:49.875Z,-1.90
2019-01-04T04:49:23.462Z,-1.90
2019-01-04T04:51:57.085Z,-1.90
2019-01-04T04:54:30.674Z,-1.90
2019-01-04T04:57:04.310Z,-1.90
2019-01-04T04:59:37.919Z,-1.80
2019-01-04T05:02:11.558Z,-1.80
2019-01-04T05:04:45.120Z,-1.80
2019-01-04T05:07:18.752Z,-1.80
2019-01-04T05:09:52.340Z,-1.80
2019-01-04T05:12:25.959Z,-1.70
2019-01-04T05:14:59.570Z,-1.70
2019-01-04T05:17:33.184Z,-1.70
2019-01-04T05:20:06.775Z,-1.70
2019-01-04T05:22:40.391Z,-1.60
2019-01-04T05:25:13.974Z,-1.70
2019-01-04T05:27:47.600Z,-1.60
2019-01-04T05:30:21.209Z,-1.60
2019-01-04T05:32:54.833Z,-1.60
2019-01-04T05:35:28.428Z,-1.60
2019-01-04T05:38:02.077Z,-1.60
2019-01-04T05:40:35.679Z,-1.60
2019-01-04T05:43:09.378Z,-1.60
2019-01-04T05:45:42.962Z,-1.60
2019-01-04T05:48:16.745Z,-1.60
2019-01-04T05:50:50.344Z,-1.60
2019-01-04T05:53:23.984Z,-1.60
2019-01-04T05:55:57.570Z,-1.60
2019-01-04T05:58:31.626Z,-1.60
2019-01-04T06:01:05.214Z,-1.60
2019-01-04T06:03:38.864Z,-1.60
2019-01-04T06:06:12.468Z,-1.50
2019-01-04T06:08:46.106Z,-1.50
2019-01-04T06:11:19.682Z,-1.50
2019-01-04T06:13:53.338Z,-1.60
2019-01-04T06:16:26.913Z,-1.60
2019-01-04T06:19:00.549Z,-1.50
2019-01-04T06:21:34.153Z,-1.60
2019-01-04T06:24:07.780Z,-1.50
2019-01-04T06:26:41.370Z,-1.50
2019-01-04T06:29:15.012Z,-1.50
2019-01-04T06:31:48.608Z,-1.50
2019-01-04T06:34:22.432Z,-1.50
2019-01-04T06:36:56.018Z,-1.40
2019-01-04T06:39:29.653Z,-1.40
2019-01-04T06:42:03.238Z,-1.40
2019-01-04T06:44:36.846Z,-1.40
2019-01-04T06:47:12.740Z,-1.40
2019-01-04T06:49:46.378Z,-1.30
2019-01-04T06:52:19.966Z,-1.30
2019-01-04T06:55:18.004Z,-1.30
2019-01-04T06:57:51.580Z,-1.30
2019-01-04T07:00:25.190Z,-1.30
2019-01-04T07:02:58.782Z,-1.20
2019-01-04T07:05:32.411Z,-1.20
2019-01-04T07:08:06.018Z,-1.20
2019-01-04T07:10:39.731Z,-1.10
2019-01-04T07:13:13.510Z,-1.10
2019-01-04T07:15:47.142Z,-1.10
2019-01-04T07:18:20.734Z,-1.10
2019-01-04T07:20:54.387Z,-1.00
2019-01-04T07:23:28.039Z,-1.00
2019-01-04T07:26:01.706Z,-1.00
2019-01-04T07:28:35.316Z,-1.00
2019-01-04T07:31:08.974Z,-0.90
2019-01-04T07:33:42.550Z,-0.90
2019-01-04T07:36:16.258Z,-0.80
2019-01-04T07:38:49.862Z,-0.80
2019-01-04T07:41:23.554Z,-0.80
2019-01-04T07:43:57.144Z,-0.70
2019-01-04T07:46:30.800Z,-0.70
2019-01-04T07:49:04.382Z,-0.70
2019-01-04T07:51:38.021Z,-0.70
2019-01-04T07:54:11.623Z,-0.60
2019-01-04T07:56:45.400Z,-0.60
2019-01-04T07:59:18.987Z,-0.60
2019-01-04T08:01:52.614Z,-0.50
2019-01-04T08:04:26.216Z,-0.50
2019-01-04T08:06:59.896Z,-0.50
2019-01-04T08:09:33.491Z,-0.50
2019-01-04T08:12:07.115Z,-0.50
2019-01-04T08:14:40.696Z,-0.40
2019-01-04T08:17:14.556Z,-0.30
2019-01-04T08:19:48.284Z,-0.30
2019-01-04T08:22:23.864Z,-0.20
2019-01-04T08:24:57.602Z,-0.10
2019-01-04T08:27:31.176Z,0.00
2019-01-04T08:30:07.828Z,0.10
2019-01-04T08:32:41.562Z,0.10
2019-01-04T08:35:15.246Z,0.20
2019-01-04T08:37:48.995Z,0.30
2019-01-04T08:40:22.618Z,0.40
2019-01-04T08:42:56.209Z,0.50
2019-01-04T08:45:29.896Z,0.50
2019-01-04T08:48:03.492Z,0.60
2019-01-04T08:50:37.143Z,0.70
2019-01-04T08:53:10.905Z,0.70
2019-01-04T08:55:44.535Z,0.80
2019-01-04T08:58:18.160Z,0.80
2019-01-04T09:00:51.786Z,0.80
2019-01-04T09:03:25.371Z,0.80
2019-01-04T09:05:59.175Z,0.80
2019-01-04T09:08:32.844Z,0.90
2019-01-04T09:11:06.447Z,0.90
2019-01-04T09:13:40.225Z,1.00
2019-01-04T09:16:13.875Z,1.00
2019-01-04T09:18:47.485Z,1.10
2019-01-04T09:21:21.174Z,1.20
2019-01-04T09:23:55.873Z,1.20
2019-01-04T09:26:29.637Z,1.30
2019-01-04T09:29:03.295Z,1.40
2019-01-04T09:31:36.931Z,1.40
2019-01-04T09:34:10.509Z,1.40
2019-01-04T09:36:44.213Z,1.40
2019-01-04T09:39:17.934Z,1.40
2019-01-04T09:41:51.883Z,1.50
2019-01-04T09:44:25.468Z,1.50
2019-01-04T09:46:59.059Z,1.50
2019-01-04T09:49:32.690Z,1.50
2019-01-04T09:52:06.267Z,1.40
2019-01-04T09:54:39.874Z,1.40
2019-01-04T09:57:13.501Z,1.40
2019-01-04T09:59:47.103Z,1.50
2019-01-04T10:02:20.767Z,1.50
2019-01-04T10:04:54.569Z,1.50
2019-01-04T10:07:28.243Z,1.50
2019-01-04T10:10:01.842Z,1.60
2019-01-04T10:12:35.473Z,1.60
2019-01-04T10:15:14.577Z,1.70
2019-01-04T10:17:48.234Z,1.70
2019-01-04T10:20:21.826Z,1.80
2019-01-04T10:22:55.437Z,1.90
2019-01-04T10:25:29.098Z,1.90
2019-01-04T10:28:02.770Z,2.00
2019-01-04T10:30:36.372Z,2.00
2019-01-04T10:33:10.003Z,2.00
2019-01-04T10:35:43.615Z,2.00
2019-01-04T10:38:17.246Z,1.90
2019-01-04T10:40:50.827Z,2.00
2019-01-04T10:43:24.452Z,2.00
2019-01-04T10:45:58.048Z,2.00
2019-01-04T10:48:31.689Z,2.00
2019-01-04T10:51:05.453Z,2.00
2019-01-04T10:53:39.182Z,2.00
2019-01-04T10:56:12.883Z,2.00
2019-01-04T10:58:46.490Z,2.00
2019-01-04T11:01:20.071Z,2.00
2019-01-04T11:03:53.714Z,2.00
2019-01-04T11:06:27.670Z,2.00
2019-01-04T11:09:01.309Z,2.00
2019-01-04T11:11:34.883Z,2.10
2019-01-04T11:14:08.589Z,2.10
2019-01-04T11:16:42.173Z,2.10
2019-01-04T11:19:15.811Z,2.10
2019-01-04T11:21:49.401Z,2.10
2019-01-04T11:24:37.969Z,2.10
2019-01-04T11:27:11.561Z,2.10
2019-01-04T11:29:56.855Z,2.10
2019-01-04T11:32:42.313Z,2.00
2019-01-04T11:35:30.877Z,2.00
2019-01-04T11:38:07.584Z,2.00
2019-01-04T11:40:50.555Z,2.00
2019-01-04T11:43:43.574Z,2.00
2019-01-04T11:46:26.011Z,2.00
2019-01-04T11:49:05.247Z,2.00
2019-01-04T11:51:50.314Z,2.00
2019-01-04T11:54:24.031Z,2.00
2019-01-04T11:56:57.681Z,2.00
2019-01-04T11:59:31.391Z,2.00
2019-01-04T12:02:05.155Z,2.00
2019-01-04T12:04:38.755Z,2.10
2019-01-04T12:07:12.492Z,2.00
2019-01-04T12:09:46.081Z,2.00
2019-01-04T12:12:19.739Z,2.00
2019-01-04T12:14:53.321Z,2.00
2019-01-04T12:17:26.947Z,2.10
2019-01-04T12:20:00.545Z,2.10
2019-01-04T12:22:34.187Z,2.10
2019-01-04T12:25:07.871Z,2.20
2019-01-04T12:27:41.479Z,2.20
2019-01-04T12:30:16.343Z,2.20
2019-01-04T12:32:50.051Z,2.20
2019-01-04T12:35:24.748Z,2.30
2019-01-04T12:37:58.537Z,2.30
2019-01-04T12:40:32.133Z,2.40
2019-01-04T12:43:05.740Z,2.40
2019-01-04T12:45:39.325Z,2.40
2019-01-04T12:48:12.957Z,2.40
2019-01-04T12:50:46.549Z,2.40
2019-01-04T12:53:20.343Z,2.40
2019-01-04T12:55:54.041Z,2.40
2019-01-04T12:58:27.667Z,2.40
2019-01-04T13:01:01.359Z,2.40
2019-01-04T13:03:34.975Z,2.30
2019-01-04T13:06:08.553Z,2.30
2019-01-04T13:08:42.317Z,2.30
2019-01-04T13:11:15.983Z,2.30
2019-01-04T13:13:49.611Z,2.30
2019-01-04T13:16:23.311Z,2.30
2019-01-04T13:18:57.120Z,2.30
2019-01-04T13:21:30.717Z,2.20
2019-01-04T13:24:04.347Z,2.30
2019-01-04T13:26:38.068Z,2.30
2019-01-04T13:29:12.116Z,2.30
2019-01-04T13:31:45.715Z,2.30
2019-01-04T13:34:19.346Z,2.20
2019-01-04T13:36:53.126Z,2.30
2019-01-04T13:39:26.777Z,2.30
2019-01-04T13:42:00.362Z,2.30
2019-01-04T13:44:34.006Z,2.30
2019-01-04T13:47:07.611Z,2.30
2019-01-04T13:49:41.231Z,2.20
2019-01-04T13:52:14.823Z,2.20
2019-01-04T13:54:48.436Z,2.20
2019-01-04T13:57:22.150Z,2.10
2019-01-04T13:59:55.764Z,2.10
2019-01-04T14:02:29.354Z,2.10
2019-01-04T14:05:03.169Z,2.00
2019-01-04T14:07:36.818Z,2.00
2019-01-04T14:10:10.615Z,2.00
2019-01-04T14:12:44.203Z,2.00
2019-01-04T14:15:17.860Z,2.00
2019-01-04T14:17:51.509Z,2.00
2019-01-04T14:20:25.169Z,2.00
2019-01-04T14:22:58.756Z,1.90
2019-01-04T14:25:32.398Z,1.90
2019-01-04T14:28:05.969Z,1.90
2019-01-04T14:30:39.725Z,1.90
2019-01-04T14:33:13.332Z,1.90
2019-01-04T14:35:47.062Z,1.90
2019-01-04T14:38:20.720Z,1.90
2019-01-04T14:40:54.425Z,1.90
2019-01-04T14:43:28.039Z,1.90
2019-01-04T14:46:01.695Z,1.90
2019-01-04T14:48:35.322Z,1.90
2019-01-04T14:51:09.033Z,1.90
2019-01-04T14:53:42.619Z,1.80
2019-01-04T14:56:16.255Z,1.80
2019-01-04T14:58:49.842Z,1.80
2019-01-04T15:01:23.576Z,1.80
2019-01-04T15:03:57.216Z,1.80
2019-01-04T15:06:30.849Z,1.80
2019-01-04T15:09:06.579Z,1.80
2019-01-04T15:11:40.394Z,1.80
2019-01-04T15:14:13.969Z,1.70
2019-01-04T15:16:47.596Z,1.70
2019-01-04T15:19:21.186Z,1.70
2019-01-04T15:21:54.826Z,1.70
2019-01-04T15:24:28.422Z,1.70
2019-01-04T15:27:02.061Z,1.70
2019-01-04T15:29:35.710Z,1.70
2019-01-04T15:32:09.444Z,1.70
2019-01-04T15:34:43.092Z,1.70
2019-01-04T15:37:16.779Z,1.70
2019-01-04T15:39:50.377Z,1.70
2019-01-04T15:42:24.141Z,1.70
2019-01-04T15:44:57.849Z,1.70
2019-01-04T15:47:31.442Z,1.70
2019-01-04T15:50:07.823Z,1.70
2019-01-04T15:52:41.464Z,1.70
2019-01-04T15:55:15.094Z,1.70
2019-01-04T15:57:48.712Z,1.80
2019-01-04T16:00:22.312Z,1.80
2019-01-04T16:02:55.967Z,1.80
2019-01-04T16:05:29.614Z,1.80
2019-01-04T16:08:03.180Z,1.80
2019-01-04T16:10:36.820Z,1.90
2019-01-04T16:13:10.403Z,1.80
2019-01-04T16:15:44.106Z,1.80
2019-01-04T16:18:17.756Z,1.90
2019-01-04T16:20:51.409Z,1.90
2019-01-04T16:23:25.078Z,1.90
2019-01-04T16:25:58.718Z,1.90
2019-01-04T16:28:32.424Z,2.00
2019-01-04T16:31:06.056Z,2.00
2019-01-04T16:33:39.642Z,2.00
2019-01-04T16:36:13.528Z,2.00
2019-01-04T16:38:47.080Z,2.00
2019-01-04T16:41:20.710Z,2.00
2019-01-04T16:43:54.311Z,2.10
2019-01-04T16:46:27.988Z,2.00
2019-01-04T16:49:01.846Z,2.10
2019-01-04T16:51:35.575Z,2.10
2019-01-04T16:54:09.159Z,2.10
2019-01-04T16:56:42.970Z,2.10
2019-01-04T16:59:16.546Z,2.10
2019-01-04T17:01:50.187Z,2.10
2019-01-04T17:04:23.924Z,2.10
2019-01-04T17:06:57.584Z,2.10
2019-01-04T17:09:31.244Z,2.10
2019-01-04T17:12:05.086Z,2.10
2019-01-04T17:14:38.684Z,2.10
2019-01-04T17:17:12.332Z,2.10
2019-01-04T17:19:45.924Z,2.10
2019-01-04T17:22:19.657Z,2.20
2019-01-04T17:24:53.310Z,2.20
2019-01-04T17:27:26.964Z,2.20
2019-01-04T17:30:00.577Z,2.20
2019-01-04T17:32:34.209Z,2.20
2019-01-04T17:35:07.947Z,2.10
2019-01-04T17:37:41.583Z,2.10
2019-01-04T17:40:15.246Z,2.20
2019-01-04T17:42:48.905Z,2.20
2019-01-04T17:45:22.640Z,2.20
2019-01-04T17:47:56.275Z,2.10
2019-01-04T17:50:30.196Z,2.10
2019-01-04T17:53:03.867Z,2.20
2019-01-04T17:55:37.653Z,2.20
2019-01-04T17:58:11.303Z,2.10
2019-01-04T18:00:45.403Z,2.10
2019-01-04T18:03:19.151Z,2.20
2019-01-04T18:05:52.791Z,2.10
2019-01-04T18:08:26.565Z,2.10
2019-01-04T18:11:00.252Z,2.10
2019-01-04T18:13:33.872Z,2.10
2019-01-04T18:16:07.536Z,2.10
2019-01-04T18:18:41.214Z,2.10
2019-01-04T18:21:14.787Z,2.10
2019-01-04T18:23:48.442Z,2.20
2019-01-04T18:26:24.476Z,2.20
2019-01-04T18:28:57.516Z,2.20
2019-01-04T18:31:31.097Z,2.20
2019-01-04T18:34:04.932Z,2.20
2019-01-04T18:36:38.580Z,2.20
2019-01-04T18:39:12.354Z,2.20
2019-01-04T18:41:45.937Z,2.20
2019-01-04T18:44:19.576Z,2.20
2019-01-04T18:46:53.167Z,2.20
2019-01-04T18:49:26.793Z,2.20
2019-01-04T18:52:00.406Z,2.20
2019-01-04T18:54:34.094Z,2.20
2019-01-04T18:57:07.805Z,2.20
2019-01-04T18:59:41.837Z,2.20
2019-01-04T19:02:15.620Z,2.20
2019-01-04T19:04:49.225Z,2.20
2019-01-04T19:07:22.817Z,2.20
2019-01-04T19:09:56.656Z,2.20
2019-01-04T19:12:30.289Z,2.20
2019-01-04T19:15:04.962Z,2.10
2019-01-04T19:17:38.789Z,2.20
2019-01-04T19:20:12.542Z,2.10
2019-01-04T19:22:46.124Z,2.20
2019-01-04T19:25:19.947Z,2.10
2019-01-04T19:27:54.470Z,2.10
2019-01-04T19:30:28.153Z,2.20
2019-01-04T19:33:01.982Z,2.20
2019-01-04T19:35:35.867Z,2.20
2019-01-04T19:38:09.711Z,2.20
2019-01-04T19:40:43.637Z,2.10
2019-01-04T19:43:17.455Z,2.10
2019-01-04T19:45:51.118Z,2.20
2019-01-04T19:48:26.425Z,2.20
2019-01-04T19:51:00.061Z,2.20
2019-01-04T19:53:33.781Z,2.20
2019-01-04T19:56:07.443Z,2.20
2019-01-04T19:58:41.043Z,2.20
2019-01-04T20:01:14.743Z,2.20
2019-01-04T20:03:48.380Z,2.20
2019-01-04T20:06:41.914Z,2.20
2019-01-04T20:10:06.774Z,2.20
2019-01-04T20:13:00.388Z,2.20
2019-01-04T20:15:47.317Z,2.20
2019-01-04T20:18:34.655Z,2.20
2019-01-04T20:24:18.771Z,2.20
2019-01-04T20:27:02.795Z,2.20
2019-01-04T20:29:49.933Z,2.30
2019-01-04T20:32:43.300Z,2.20
2019-01-04T20:35:21.558Z,2.20
2019-01-04T20:38:05.739Z,2.20
2019-01-04T20:40:50.279Z,2.30
2019-01-04T20:43:34.251Z,2.30
2019-01-04T20:46:18.373Z,2.40
2019-01-04T20:48:59.232Z,2.40
2019-01-04T20:51:40.519Z,2.40
2019-01-04T20:54:18.447Z,2.40
2019-01-04T20:56:53.889Z,2.40
2019-01-04T20:59:35.303Z,2.40
2019-01-04T21:02:22.508Z,2.50
2019-01-04T21:05:14.229Z,2.50
2019-01-04T21:08:04.344Z,2.50
2019-01-04T21:10:56.285Z,2.50
2019-01-04T21:13:40.346Z,2.50
2019-01-04T21:16:21.456Z,2.60
2019-01-04T21:18:56.723Z,2.50
2019-01-04T21:21:34.598Z,2.50
2019-01-04T21:24:15.879Z,2.50
2019-01-04T21:26:54.102Z,2.60
2019-01-04T21:29:29.323Z,2.60
2019-01-04T21:32:07.473Z,2.60
2019-01-04T21:34:48.554Z,2.60
2019-01-04T21:37:27.179Z,2.60
2019-01-04T21:40:17.574Z,2.60
2019-01-04T21:42:58.917Z,2.70
2019-01-04T21:45:50.571Z,2.60
2019-01-04T21:48:28.611Z,2.70
2019-01-04T21:51:18.819Z,2.70
2019-01-04T21:54:10.135Z,2.70
2019-01-04T21:56:51.235Z,2.80
2019-01-04T21:59:42.505Z,2.80
2019-01-04T22:02:17.740Z,2.80
2019-01-04T22:04:58.991Z,2.80
2019-01-04T22:07:50.609Z,2.80
2019-01-04T22:10:43.730Z,2.70
2019-01-04T22:13:18.960Z,2.70
2019-01-04T22:16:00.147Z,2.70
2019-01-04T22:18:51.738Z,2.70
2019-01-04T22:21:31.421Z,2.70
2019-01-04T22:24:09.755Z,2.70
2019-01-04T22:26:50.735Z,2.70
2019-01-04T22:29:28.893Z,2.70
2019-01-04T22:32:13.338Z,2.70
2019-01-04T22:35:04.671Z,2.70
2019-01-04T22:37:39.915Z,2.70
2019-01-04T22:40:18.102Z,2.80
2019-01-04T22:42:58.989Z,2.80
2019-01-04T22:45:34.258Z,2.80
2019-01-04T22:48:25.583Z,2.80
2019-01-04T22:54:11.867Z,2.90
2019-01-04T22:56:52.642Z,2.90
2019-01-04T22:59:44.004Z,2.90
2019-01-04T23:02:31.144Z,2.90
2019-01-04T23:05:22.080Z,2.90
2019-01-04T23:08:02.949Z,2.90
2019-01-04T23:10:47.263Z,2.90
2019-01-04T23:13:41.033Z,2.90
2019-01-04T23:16:19.023Z,3.00
2019-01-04T23:19:02.963Z,2.90
2019-01-04T23:22:11.911Z,3.00
2019-01-04T23:25:04.501Z,3.00
2019-01-04T23:27:42.873Z,3.00
2019-01-04T23:30:26.974Z,3.00
2019-01-04T23:33:04.847Z,3.00
2019-01-04T23:35:40.064Z,3.00
2019-01-04T23:41:30.166Z,3.00
2019-01-04T23:44:21.787Z,3.10
2019-01-04T23:46:57.191Z,3.10
2019-01-04T23:49:47.621Z,3.00
2019-01-04T23:52:38.227Z,3.00
2019-01-04T23:55:13.529Z,3.10
2019-01-04T23:57:57.873Z,3.10
